createdAt,value
2019-01-16T00:01:18.409Z,16.33
2019-01-16T00:03:57.255Z,16.47
2019-01-16T00:06:45.820Z,16.73
2019-01-16T00:09:54.282Z,17.70
2019-01-16T00:12:53.830Z,14.17
2019-01-16T00:15:47.012Z,15.60
2019-01-16T00:18:42.405Z,17.93
2019-01-16T00:21:31.298Z,14.77
2019-01-16T00:24:16.136Z,15.23
2019-01-16T00:27:04.927Z,15.97
2019-01-16T00:29:54.982Z,15.17
2019-01-16T00:32:43.767Z,12.50
2019-01-16T00:35:38.984Z,14.23
2019-01-16T00:38:34.945Z,15.13
2019-01-16T00:41:23.930Z,13.10
2019-01-16T00:44:23.036Z,12.53
2019-01-16T00:47:13.164Z,14.20
2019-01-16T00:50:06.022Z,12.60
2019-01-16T00:52:57.440Z,14.20
2019-01-16T00:56:06.040Z,13.87
2019-01-16T00:58:58.917Z,11.50
2019-01-16T01:01:47.796Z,11.77
2019-01-16T01:04:33.514Z,11.60
2019-01-16T01:07:16.466Z,13.17
2019-01-16T01:10:09.595Z,10.97
2019-01-16T01:12:58.623Z,11.23
2019-01-16T01:15:50.634Z,11.60
2019-01-16T01:18:46.555Z,11.83
2019-01-16T01:21:35.522Z,10.90
2019-01-16T01:24:24.462Z,12.53
2019-01-16T01:27:23.214Z,12.40
2019-01-16T01:30:02.024Z,12.10
2019-01-16T01:32:51.302Z,12.60
2019-01-16T01:35:40.056Z,10.13
2019-01-16T01:38:29.725Z,12.70
2019-01-16T01:41:19.807Z,13.57
2019-01-16T01:43:57.060Z,13.43
2019-01-16T01:46:43.552Z,14.40
2019-01-16T01:49:42.703Z,13.83
2019-01-16T01:52:31.338Z,13.60
2019-01-16T01:55:39.473Z,11.80
2019-01-16T01:58:24.214Z,13.47
2019-01-16T02:01:17.102Z,14.37
2019-01-16T02:04:28.983Z,16.50
2019-01-16T02:07:19.073Z,15.20
2019-01-16T02:10:05.545Z,15.47
2019-01-16T02:13:02.826Z,17.57
2019-01-16T02:15:50.959Z,14.07
2019-01-16T02:18:47.178Z,15.57
2019-01-16T02:21:22.206Z,16.40
2019-01-16T02:24:05.020Z,14.90
2019-01-16T02:26:54.957Z,16.70
2019-01-16T02:29:47.700Z,15.90
2019-01-16T02:32:50.122Z,16.10
2019-01-16T02:35:42.584Z,11.93
2019-01-16T02:38:50.756Z,15.13
2019-01-16T02:41:58.694Z,17.90
2019-01-16T02:44:49.624Z,16.83
2019-01-16T02:47:48.498Z,19.20
2019-01-16T02:50:32.334Z,16.60
2019-01-16T02:53:23.013Z,18.10
2019-01-16T02:56:09.042Z,18.20
2019-01-16T02:58:53.047Z,17.30
2019-01-16T03:01:48.963Z,18.63
2019-01-16T03:04:34.866Z,18.50
2019-01-16T03:07:19.215Z,16.80
2019-01-16T03:10:06.437Z,17.10
2019-01-16T03:12:53.178Z,19.53
2019-01-16T03:15:42.185Z,17.63
2019-01-16T03:18:30.749Z,16.83
2019-01-16T03:21:20.777Z,18.87
2019-01-16T03:24:17.621Z,19.47
2019-01-16T03:27:16.231Z,16.90
2019-01-16T03:30:00.687Z,17.87
2019-01-16T03:32:55.135Z,20.50
2019-01-16T03:35:43.973Z,19.27
2019-01-16T03:38:36.915Z,20.37
2019-01-16T03:41:25.591Z,21.00
2019-01-16T03:44:09.695Z,15.17
2019-01-16T03:46:59.721Z,20.17
2019-01-16T03:49:41.839Z,19.63
2019-01-16T03:52:26.010Z,19.57
2019-01-16T03:55:14.851Z,18.73
2019-01-16T03:58:03.467Z,20.57
2019-01-16T04:00:53.429Z,17.77
2019-01-16T04:03:41.477Z,18.87
2019-01-16T04:06:27.602Z,18.30
2019-01-16T04:09:16.434Z,18.50
2019-01-16T04:12:18.414Z,16.90
2019-01-16T04:15:14.279Z,16.80
2019-01-16T04:17:58.694Z,18.53
2019-01-16T04:20:51.645Z,19.30
2019-01-16T04:23:40.085Z,19.20
2019-01-16T04:26:25.779Z,18.27
2019-01-16T04:29:18.420Z,18.67
2019-01-16T04:32:17.222Z,18.20
2019-01-16T04:35:16.233Z,17.93
2019-01-16T04:38:00.033Z,17.97
2019-01-16T04:40:53.192Z,18.27
2019-01-16T04:43:48.987Z,19.90
2019-01-16T04:46:42.745Z,17.70
2019-01-16T04:49:21.023Z,18.50
2019-01-16T04:52:14.796Z,17.30
2019-01-16T04:55:03.431Z,18.73
2019-01-16T04:57:54.425Z,17.97
2019-01-16T05:00:41.848Z,19.70
2019-01-16T05:03:46.247Z,16.90
2019-01-16T05:06:36.839Z,19.73
2019-01-16T05:09:28.139Z,18.77
2019-01-16T05:12:20.147Z,20.70
2019-01-16T05:15:12.929Z,20.73
2019-01-16T05:18:08.059Z,18.57
2019-01-16T05:20:57.170Z,20.50
2019-01-16T05:23:53.262Z,20.40
2019-01-16T05:27:02.070Z,22.60
2019-01-16T05:30:00.236Z,22.83
2019-01-16T05:32:53.931Z,23.37
2019-01-16T05:35:43.882Z,23.70
2019-01-16T05:38:31.170Z,23.10
2019-01-16T05:41:24.271Z,20.47
2019-01-16T05:44:26.345Z,23.77
2019-01-16T05:47:08.443Z,23.43
2019-01-16T05:49:58.492Z,22.27
2019-01-16T05:52:49.609Z,22.80
2019-01-16T05:55:36.504Z,20.17
2019-01-16T05:58:39.538Z,22.53
2019-01-16T06:01:41.614Z,23.63
2019-01-16T06:04:31.749Z,20.40
2019-01-16T06:07:24.995Z,25.20
2019-01-16T06:10:29.973Z,24.00
2019-01-16T06:13:28.302Z,24.97
2019-01-16T06:16:11.195Z,25.30
2019-01-16T06:18:52.514Z,25.70
2019-01-16T06:21:36.162Z,26.50
2019-01-16T06:24:38.331Z,26.77
2019-01-16T06:27:27.386Z,27.50
2019-01-16T06:30:16.451Z,27.47
2019-01-16T06:33:04.899Z,29.73
2019-01-16T06:35:54.989Z,28.37
2019-01-16T06:38:57.588Z,29.73
2019-01-16T06:42:13.192Z,29.70
2019-01-16T06:44:54.845Z,31.77
2019-01-16T06:47:45.028Z,32.17
2019-01-16T06:50:37.899Z,31.07
2019-01-16T06:53:24.610Z,32.50
2019-01-16T06:56:23.802Z,33.60
2019-01-16T06:59:32.098Z,31.70
2019-01-16T07:02:20.732Z,32.27
2019-01-16T07:05:28.997Z,34.73
2019-01-16T07:08:26.508Z,34.40
2019-01-16T07:11:07.689Z,35.90
2019-01-16T07:14:03.136Z,35.07
2019-01-16T07:17:11.462Z,36.63
2019-01-16T07:19:55.294Z,36.03
2019-01-16T07:22:44.400Z,29.37
2019-01-16T07:25:37.146Z,34.70
2019-01-16T07:28:39.528Z,32.93
2019-01-16T07:31:30.283Z,34.43
2019-01-16T07:34:23.512Z,35.70
2019-01-16T07:37:12.288Z,35.73
2019-01-16T07:39:55.475Z,37.80
2019-01-16T07:42:38.021Z,36.63
2019-01-16T07:45:35.965Z,37.77
2019-01-16T07:48:24.933Z,34.67
2019-01-16T07:51:16.857Z,35.63
2019-01-16T07:54:18.930Z,30.80
2019-01-16T07:57:01.717Z,32.77
2019-01-16T07:59:50.986Z,33.40
2019-01-16T08:02:48.173Z,34.07
2019-01-16T08:05:37.011Z,32.03
2019-01-16T08:08:16.449Z,29.33
2019-01-16T08:11:05.164Z,31.93
2019-01-16T08:14:10.273Z,26.53
2019-01-16T08:17:04.490Z,27.47
2019-01-16T08:19:49.488Z,27.20
2019-01-16T08:22:33.500Z,28.27
2019-01-16T08:25:30.132Z,25.67
2019-01-16T08:28:22.903Z,28.33
2019-01-16T08:31:15.863Z,28.43
2019-01-16T08:34:10.543Z,22.97
2019-01-16T08:36:56.057Z,25.40
2019-01-16T08:39:46.019Z,27.87
2019-01-16T08:42:34.980Z,25.30
2019-01-16T08:45:27.473Z,23.77
2019-01-16T08:48:17.483Z,21.17
2019-01-16T08:51:16.891Z,23.10
2019-01-16T08:54:02.618Z,23.60
2019-01-16T08:56:51.526Z,21.50
2019-01-16T08:59:44.797Z,21.10
2019-01-16T09:02:44.073Z,22.23
2019-01-16T09:05:37.802Z,19.90
2019-01-16T09:08:37.165Z,21.13
2019-01-16T09:11:30.453Z,19.40
2019-01-16T09:14:35.749Z,20.53
2019-01-16T09:17:24.761Z,18.83
2019-01-16T09:20:20.923Z,19.27
2019-01-16T09:23:19.795Z,18.80
2019-01-16T09:26:18.517Z,20.80
2019-01-16T09:29:13.444Z,19.07
2019-01-16T09:32:23.609Z,18.70
2019-01-16T09:35:23.484Z,16.70
2019-01-16T09:38:12.110Z,18.67
2019-01-16T09:41:03.045Z,16.93
2019-01-16T09:43:45.139Z,17.67
2019-01-16T09:46:41.134Z,12.37
2019-01-16T09:49:30.126Z,16.47
2019-01-16T09:52:39.264Z,18.30
2019-01-16T09:55:28.501Z,18.27
2019-01-16T09:58:13.495Z,17.90
2019-01-16T10:01:02.462Z,18.10
2019-01-16T10:04:05.835Z,17.93
2019-01-16T10:07:01.117Z,15.87
2019-01-16T10:09:50.064Z,16.57
2019-01-16T10:12:41.309Z,18.03
2019-01-16T10:15:31.143Z,17.17
2019-01-16T10:18:26.907Z,15.07
2019-01-16T10:21:17.049Z,16.50
2019-01-16T10:23:58.526Z,15.67
2019-01-16T10:27:00.729Z,17.00
2019-01-16T10:29:53.187Z,14.27
2019-01-16T10:32:45.535Z,14.90
2019-01-16T10:35:38.883Z,15.70
2019-01-16T10:38:22.887Z,16.33
2019-01-16T10:41:25.306Z,17.97
2019-01-16T10:44:13.385Z,17.90
2019-01-16T10:47:15.382Z,18.80
2019-01-16T10:50:04.087Z,17.73
2019-01-16T10:52:53.201Z,20.07
2019-01-16T10:55:46.941Z,20.40
2019-01-16T10:58:35.785Z,19.77
2019-01-16T11:01:41.288Z,20.77
2019-01-16T11:04:31.292Z,20.87
2019-01-16T11:07:23.027Z,22.47
2019-01-16T11:10:12.749Z,24.30
2019-01-16T11:13:04.011Z,22.73
2019-01-16T11:15:48.433Z,23.17
2019-01-16T11:18:31.299Z,25.57
2019-01-16T11:21:33.874Z,24.23
2019-01-16T11:24:36.675Z,23.97
2019-01-16T11:27:44.823Z,21.17
2019-01-16T11:30:34.335Z,23.70
2019-01-16T11:33:27.222Z,24.57
2019-01-16T11:36:14.755Z,25.97
2019-01-16T11:39:04.828Z,22.77
2019-01-16T11:41:58.391Z,24.33
2019-01-16T11:44:51.212Z,26.67
2019-01-16T11:47:44.481Z,25.03
2019-01-16T11:50:37.375Z,25.33
2019-01-16T11:53:20.664Z,23.07
2019-01-16T11:56:16.432Z,22.83
2019-01-16T11:59:10.266Z,23.43
2019-01-16T12:02:04.593Z,25.47
2019-01-16T12:05:05.713Z,21.47
2019-01-16T12:07:48.478Z,21.80
2019-01-16T12:10:51.819Z,24.07
2019-01-16T12:13:40.648Z,22.50
2019-01-16T12:16:37.264Z,19.80
2019-01-16T12:19:27.332Z,23.50
2019-01-16T12:22:19.277Z,23.17
2019-01-16T12:25:14.357Z,21.80
2019-01-16T12:28:07.860Z,18.37
2019-01-16T12:30:56.600Z,23.33
2019-01-16T12:33:41.734Z,24.00
2019-01-16T12:36:31.778Z,23.53
2019-01-16T12:39:43.084Z,24.57
2019-01-16T12:42:23.457Z,22.83
2019-01-16T12:45:12.398Z,22.87
2019-01-16T12:48:02.872Z,21.87
2019-01-16T12:51:08.038Z,22.83
2019-01-16T12:53:56.597Z,23.23
2019-01-16T12:57:01.643Z,22.13
2019-01-16T12:59:41.307Z,24.30
2019-01-16T13:02:46.450Z,22.73
2019-01-16T13:05:35.133Z,22.80
2019-01-16T13:08:29.025Z,20.10
2019-01-16T13:11:21.229Z,24.13
2019-01-16T13:14:01.539Z,23.30
2019-01-16T13:16:52.790Z,23.20
2019-01-16T13:19:37.916Z,20.60
2019-01-16T13:22:23.338Z,16.53
2019-01-16T13:25:28.148Z,17.00
2019-01-16T13:28:27.509Z,17.00
2019-01-16T13:31:16.066Z,18.40
2019-01-16T13:34:04.760Z,16.87
2019-01-16T13:37:01.916Z,19.13
2019-01-16T13:39:56.482Z,20.17
2019-01-16T13:42:46.590Z,17.90
2019-01-16T13:45:39.665Z,16.60
2019-01-16T13:48:32.992Z,16.67
2019-01-16T13:51:25.391Z,17.40
2019-01-16T13:54:19.967Z,15.30
2019-01-16T13:57:06.716Z,15.53
2019-01-16T13:59:56.753Z,16.40
2019-01-16T14:02:46.998Z,15.10
2019-01-16T14:05:33.384Z,14.80
2019-01-16T14:08:13.389Z,13.13
2019-01-16T14:11:09.327Z,14.10
2019-01-16T14:14:17.685Z,12.23
2019-01-16T14:17:22.880Z,12.70
2019-01-16T14:20:11.609Z,12.30
2019-01-16T14:23:03.337Z,11.00
2019-01-16T14:25:53.151Z,12.13
2019-01-16T14:28:41.755Z,10.57
2019-01-16T14:31:30.811Z,12.20
2019-01-16T14:34:20.938Z,12.47
2019-01-16T14:37:11.023Z,12.60
2019-01-16T14:40:16.307Z,11.30
2019-01-16T14:43:08.021Z,11.13
2019-01-16T14:45:57.423Z,12.50
2019-01-16T14:48:44.629Z,10.10
2019-01-16T14:51:30.228Z,11.67
2019-01-16T14:54:29.786Z,11.07
2019-01-16T14:57:26.059Z,9.53
2019-01-16T15:00:14.720Z,11.60
2019-01-16T15:03:04.827Z,12.90
2019-01-16T15:05:55.634Z,14.70
2019-01-16T15:08:54.888Z,13.83
2019-01-16T15:11:54.021Z,13.97
2019-01-16T15:14:42.811Z,15.43
2019-01-16T15:17:34.794Z,15.67
2019-01-16T15:20:27.332Z,16.50
2019-01-16T15:23:32.415Z,14.60
2019-01-16T15:26:34.011Z,15.13
2019-01-16T15:29:22.801Z,15.00
2019-01-16T15:32:11.507Z,13.87
2019-01-16T15:35:03.920Z,13.67
2019-01-16T15:37:52.833Z,13.60
2019-01-16T15:40:34.647Z,12.33
2019-01-16T15:43:25.195Z,13.20
2019-01-16T15:46:10.622Z,14.20
2019-01-16T15:49:00.695Z,10.20
2019-01-16T15:51:51.235Z,13.37
2019-01-16T15:54:36.828Z,12.93
2019-01-16T15:57:42.701Z,9.67
2019-01-16T16:00:36.603Z,12.03
2019-01-16T16:03:28.555Z,10.47
2019-01-16T16:06:24.578Z,12.03
2019-01-16T16:09:14.077Z,11.80
2019-01-16T16:12:03.043Z,13.10
2019-01-16T16:14:59.012Z,12.37
2019-01-16T16:17:43.597Z,11.70
2019-01-16T16:20:28.544Z,13.40
2019-01-16T16:23:18.438Z,15.70
2019-01-16T16:26:17.651Z,14.90
2019-01-16T16:29:23.010Z,15.60
2019-01-16T16:32:18.335Z,16.57
2019-01-16T16:35:07.066Z,18.60
2019-01-16T16:38:02.075Z,15.67
2019-01-16T16:41:01.975Z,17.03
2019-01-16T16:44:01.837Z,18.20
2019-01-16T16:46:55.300Z,18.87
2019-01-16T16:49:44.440Z,17.63
2019-01-16T16:52:36.428Z,18.83
2019-01-16T16:55:45.060Z,21.07
2019-01-16T16:58:33.931Z,21.27
2019-01-16T17:01:42.081Z,19.50
2019-01-16T17:04:23.086Z,20.47
2019-01-16T17:07:07.596Z,24.97
2019-01-16T17:10:05.441Z,23.93
2019-01-16T17:12:50.494Z,25.97
2019-01-16T17:15:37.142Z,25.90
2019-01-16T17:18:39.247Z,25.40
2019-01-16T17:21:24.523Z,30.03
2019-01-16T17:24:20.550Z,30.30
2019-01-16T17:27:09.964Z,28.77
2019-01-16T17:30:10.222Z,28.53
2019-01-16T17:32:59.086Z,22.50
2019-01-16T17:35:45.505Z,28.97
2019-01-16T17:38:41.690Z,26.10
2019-01-16T17:41:33.440Z,23.10
2019-01-16T17:44:22.779Z,28.20
2019-01-16T17:47:08.424Z,25.00
2019-01-16T17:50:09.696Z,24.30
2019-01-16T17:53:09.002Z,23.30
2019-01-16T17:55:55.227Z,25.20
2019-01-16T17:58:46.140Z,23.07
2019-01-16T18:01:45.581Z,24.67
2019-01-16T18:04:31.467Z,22.20
2019-01-16T18:07:30.378Z,20.03
2019-01-16T18:10:19.436Z,22.17
2019-01-16T18:13:09.418Z,21.87
2019-01-16T18:15:51.061Z,22.40
2019-01-16T18:18:40.230Z,23.87
2019-01-16T18:21:18.894Z,24.10
2019-01-16T18:24:21.319Z,22.80
2019-01-16T18:27:30.622Z,22.50
2019-01-16T18:30:12.238Z,20.60
2019-01-16T18:32:54.178Z,23.50
2019-01-16T18:35:43.252Z,20.50
2019-01-16T18:38:34.357Z,21.50
2019-01-16T18:41:23.068Z,19.40
2019-01-16T18:44:15.973Z,19.20
2019-01-16T18:47:05.323Z,21.27
2019-01-16T18:49:44.282Z,19.97
2019-01-16T18:52:34.442Z,20.83
2019-01-16T18:55:24.385Z,17.77
2019-01-16T18:58:18.111Z,18.37
2019-01-16T19:01:08.720Z,16.17
2019-01-16T19:03:54.455Z,17.13
2019-01-16T19:06:44.134Z,15.90
2019-01-16T19:09:47.519Z,15.77
2019-01-16T19:12:29.393Z,14.37
2019-01-16T19:15:19.555Z,16.90
2019-01-16T19:18:21.456Z,12.53
2019-01-16T19:21:10.181Z,14.40
2019-01-16T19:23:59.080Z,16.67
2019-01-16T19:26:47.956Z,14.97
2019-01-16T19:29:45.247Z,11.80
2019-01-16T19:32:53.972Z,15.47
2019-01-16T19:35:37.515Z,16.10
2019-01-16T19:38:25.329Z,16.50
2019-01-16T19:41:21.945Z,17.47
2019-01-16T19:44:02.278Z,18.67
2019-01-16T19:46:45.127Z,18.30
2019-01-16T19:49:50.140Z,17.33
2019-01-16T19:52:34.897Z,19.50
2019-01-16T19:55:23.470Z,19.00
2019-01-16T19:58:13.533Z,19.70
2019-01-16T20:00:55.625Z,19.23
2019-01-16T20:03:41.505Z,19.73
2019-01-16T20:06:30.193Z,20.70
2019-01-16T20:09:26.678Z,22.67
2019-01-16T20:12:15.820Z,22.07
2019-01-16T20:15:01.872Z,23.47
2019-01-16T20:17:44.796Z,21.10
2019-01-16T20:20:33.570Z,21.57
2019-01-16T20:23:34.624Z,21.30
2019-01-16T20:26:24.275Z,20.10
2019-01-16T20:29:17.476Z,21.63
2019-01-16T20:31:57.543Z,22.30
2019-01-16T20:34:46.681Z,21.80
2019-01-16T20:37:51.989Z,23.53
2019-01-16T20:40:54.530Z,22.30
2019-01-16T20:43:44.620Z,21.30
2019-01-16T20:46:37.635Z,18.70
2019-01-16T20:49:26.748Z,19.70
2019-01-16T20:52:15.807Z,15.80
2019-01-16T20:55:04.629Z,19.50
2019-01-16T20:57:54.155Z,19.90
2019-01-16T21:00:53.651Z,21.57
2019-01-16T21:03:54.356Z,21.80
2019-01-16T21:07:02.640Z,19.73
2019-01-16T21:10:04.865Z,21.40
2019-01-16T21:12:57.005Z,21.23
2019-01-16T21:15:52.997Z,20.93
2019-01-16T21:18:35.692Z,21.50
2019-01-16T21:21:34.865Z,15.27
2019-01-16T21:24:28.465Z,18.50
2019-01-16T21:27:27.667Z,21.80
2019-01-16T21:30:32.938Z,17.77
2019-01-16T21:33:22.026Z,20.13
2019-01-16T21:36:06.903Z,21.10
2019-01-16T21:38:56.510Z,20.17
2019-01-16T21:41:36.798Z,19.90
2019-01-16T21:44:25.673Z,20.40
2019-01-16T21:47:14.447Z,19.43
2019-01-16T21:50:10.861Z,18.10
2019-01-16T21:52:53.967Z,21.40
2019-01-16T21:55:45.827Z,20.97
2019-01-16T21:58:44.918Z,17.40
2019-01-16T22:01:36.973Z,22.07
2019-01-16T22:04:26.091Z,20.10
2019-01-16T22:10:28.701Z,22.20
2019-01-16T22:13:14.509Z,20.33
2019-01-16T22:16:13.495Z,21.63
2019-01-16T22:18:59.723Z,22.77
2019-01-16T22:21:41.248Z,21.90
2019-01-16T22:24:24.183Z,21.40
2019-01-16T22:27:21.842Z,20.63
2019-01-16T22:30:30.406Z,20.80
2019-01-16T22:33:11.222Z,20.50
2019-01-16T22:36:10.363Z,20.50
2019-01-16T22:38:52.412Z,22.50
2019-01-16T22:41:35.965Z,18.97
2019-01-16T22:44:25.610Z,23.23
2019-01-16T22:47:16.547Z,24.30
2019-01-16T22:50:04.800Z,24.10
2019-01-16T22:52:56.717Z,24.53
2019-01-16T22:55:43.621Z,23.40
2019-01-16T22:58:30.529Z,21.10
2019-01-16T23:01:16.826Z,22.17
2019-01-16T23:04:05.886Z,22.20
2019-01-16T23:06:44.623Z,23.30
2019-01-16T23:09:27.433Z,19.83
2019-01-16T23:12:29.762Z,24.43
2019-01-16T23:15:38.339Z,21.50
2019-01-16T23:18:27.025Z,24.80
2019-01-16T23:21:15.998Z,23.43
2019-01-16T23:23:53.150Z,25.60
2019-01-16T23:26:39.958Z,25.23
2019-01-16T23:29:29.926Z,26.70
2019-01-16T23:32:11.004Z,26.40
2019-01-16T23:34:54.715Z,23.70
2019-01-16T23:37:43.700Z,25.80
2019-01-16T23:40:36.822Z,25.97
2019-01-16T23:43:36.146Z,28.00
2019-01-16T23:46:25.028Z,26.87
2019-01-16T23:49:14.212Z,25.47
2019-01-16T23:52:12.545Z,27.07
2019-01-16T23:55:05.705Z,26.20
2019-01-16T23:58:04.632Z,25.47
